createdAt,value
2023-04-15T00:00:24.472Z,2.91
2023-04-15T00:01:24.472Z,2.85
2023-04-15T00:02:24.552Z,2.89
2023-04-15T00:03:24.626Z,2.86
2023-04-15T00:04:24.564Z,2.79
2023-04-15T00:05:24.457Z,2.74
2023-04-15T00:06:24.444Z,2.87
2023-04-15T00:07:24.432Z,2.88
2023-04-15T00:08:24.432Z,2.81
2023-04-15T00:09:24.410Z,2.85
2023-04-15T00:10:24.417Z,2.85
2023-04-15T00:11:24.397Z,2.89
2023-04-15T00:12:24.416Z,2.92
2023-04-15T00:13:24.396Z,2.90
2023-04-15T00:14:24.390Z,2.88
2023-04-15T00:15:24.390Z,2.86
2023-04-15T00:16:24.383Z,2.83
2023-04-15T00:17:24.383Z,2.82
2023-04-15T00:18:24.406Z,2.83
2023-04-15T00:19:24.396Z,2.81
2023-04-15T00:20:24.400Z,2.78
2023-04-15T00:21:24.389Z,2.80
2023-04-15T00:22:24.439Z,2.74
2023-04-15T00:23:24.406Z,2.62
2023-04-15T00:24:24.402Z,2.77
2023-04-15T00:25:24.386Z,2.68
2023-04-15T00:26:24.397Z,2.71
2023-04-15T00:27:24.373Z,2.73
2023-04-15T00:28:24.392Z,2.73
2023-04-15T00:29:24.386Z,2.71
2023-04-15T00:30:24.377Z,2.64
2023-04-15T00:31:24.465Z,2.61
2023-04-15T00:32:24.478Z,2.66
2023-04-15T00:33:24.416Z,2.69
2023-04-15T00:34:24.381Z,2.78
2023-04-15T00:35:24.348Z,2.75
2023-04-15T00:36:24.358Z,2.76
2023-04-15T00:37:24.370Z,2.76
2023-04-15T00:38:24.392Z,2.73
2023-04-15T00:39:24.350Z,2.78
2023-04-15T00:40:24.372Z,2.80
2023-04-15T00:41:24.361Z,2.77
2023-04-15T00:42:24.345Z,2.75
2023-04-15T00:43:24.382Z,2.69
2023-04-15T00:44:24.359Z,2.69
2023-04-15T00:45:24.364Z,2.67
2023-04-15T00:46:24.445Z,2.67
2023-04-15T00:47:24.349Z,2.70
2023-04-15T00:48:24.333Z,2.67
2023-04-15T00:49:24.318Z,2.59
2023-04-15T00:50:24.309Z,2.46
2023-04-15T00:51:24.322Z,2.43
2023-04-15T00:52:24.315Z,2.42
2023-04-15T00:53:24.314Z,2.46
2023-04-15T00:54:24.300Z,2.41
2023-04-15T00:55:24.312Z,2.39
2023-04-15T00:56:24.310Z,2.44
2023-04-15T00:57:24.289Z,2.47
2023-04-15T00:58:24.278Z,2.51
2023-04-15T00:59:24.288Z,2.51
2023-04-15T01:00:24.278Z,2.50
2023-04-15T01:01:24.278Z,2.48
2023-04-15T01:02:24.356Z,2.40
2023-04-15T01:03:24.338Z,2.29
2023-04-15T01:04:24.350Z,2.33
2023-04-15T01:05:24.254Z,2.30
2023-04-15T01:06:24.261Z,2.28
2023-04-15T01:07:24.254Z,2.27
2023-04-15T01:08:24.238Z,2.31
2023-04-15T01:09:24.231Z,2.32
2023-04-15T01:10:24.282Z,2.27
2023-04-15T01:11:24.233Z,2.24
2023-04-15T01:12:24.222Z,2.38
2023-04-15T01:13:24.237Z,2.36
2023-04-15T01:14:24.223Z,2.20
2023-04-15T01:15:24.225Z,2.13
2023-04-15T01:16:24.252Z,2.18
2023-04-15T01:17:24.221Z,2.13
2023-04-15T01:18:24.209Z,2.16
2023-04-15T01:19:24.243Z,2.19
2023-04-15T01:20:24.203Z,2.14
2023-04-15T01:21:24.235Z,2.12
2023-04-15T01:22:24.195Z,2.14
2023-04-15T01:23:24.218Z,2.18
2023-04-15T01:24:24.210Z,2.24
2023-04-15T01:25:24.193Z,2.13
2023-04-15T01:26:24.198Z,2.07
2023-04-15T01:27:24.198Z,2.03
2023-04-15T01:28:24.180Z,2.00
2023-04-15T01:29:24.183Z,2.05
2023-04-15T01:30:24.190Z,2.06
2023-04-15T01:31:24.237Z,2.03
2023-04-15T01:32:24.178Z,2.06
2023-04-15T01:33:24.169Z,2.03
2023-04-15T01:34:24.164Z,2.01
2023-04-15T01:35:24.194Z,2.03
2023-04-15T01:36:24.169Z,2.11
2023-04-15T01:37:24.173Z,2.09
2023-04-15T01:38:24.162Z,1.91
2023-04-15T01:39:24.156Z,1.89
2023-04-15T01:40:24.166Z,1.96
2023-04-15T01:41:24.166Z,1.92
2023-04-15T01:42:24.170Z,1.96
2023-04-15T01:43:24.149Z,1.84
2023-04-15T01:44:24.189Z,1.86
2023-04-15T01:45:24.162Z,1.91
2023-04-15T01:46:24.166Z,1.93
2023-04-15T01:47:24.195Z,1.82
2023-04-15T01:48:24.156Z,1.89
2023-04-15T01:49:24.139Z,1.90
2023-04-15T01:50:24.142Z,1.82
2023-04-15T01:51:24.141Z,1.77
2023-04-15T01:52:24.139Z,1.74
2023-04-15T01:53:24.140Z,1.75
2023-04-15T01:54:24.162Z,1.79
2023-04-15T01:55:24.143Z,1.77
2023-04-15T01:56:24.143Z,1.82
2023-04-15T01:57:24.156Z,1.80
2023-04-15T01:58:24.155Z,1.79
2023-04-15T01:59:24.169Z,1.75
2023-04-15T02:00:24.176Z,1.84
2023-04-15T02:01:24.204Z,1.73
2023-04-15T02:02:24.234Z,1.76
2023-04-15T02:03:24.212Z,1.68
2023-04-15T02:04:24.180Z,1.78
2023-04-15T02:05:24.157Z,1.75
2023-04-15T02:06:24.172Z,1.75
2023-04-15T02:07:24.167Z,1.72
2023-04-15T02:08:24.184Z,1.70
2023-04-15T02:09:24.183Z,1.74
2023-04-15T02:10:24.183Z,1.75
2023-04-15T02:11:24.196Z,1.74
2023-04-15T02:12:24.183Z,1.69
2023-04-15T02:13:24.206Z,1.69
2023-04-15T02:14:24.214Z,1.68
2023-04-15T02:15:24.207Z,1.61
2023-04-15T02:16:24.239Z,1.58
2023-04-15T02:17:24.209Z,1.65
2023-04-15T02:18:24.194Z,1.58
2023-04-15T02:19:24.196Z,1.64
2023-04-15T02:20:24.212Z,1.60
2023-04-15T02:21:24.200Z,1.69
2023-04-15T02:22:24.212Z,1.67
2023-04-15T02:23:24.218Z,1.64
2023-04-15T02:24:24.224Z,1.59
2023-04-15T02:25:24.241Z,1.57
2023-04-15T02:26:24.202Z,1.61
2023-04-15T02:27:24.225Z,1.60
2023-04-15T02:28:24.223Z,1.53
2023-04-15T02:29:24.228Z,1.52
2023-04-15T02:30:24.223Z,1.60
2023-04-15T02:31:24.268Z,1.55
2023-04-15T02:32:24.275Z,1.51
2023-04-15T02:33:24.240Z,1.53
2023-04-15T02:34:24.256Z,1.63
2023-04-15T02:35:24.251Z,1.56
2023-04-15T02:36:24.261Z,1.60
2023-04-15T02:37:24.242Z,1.57
2023-04-15T02:38:24.251Z,1.51
2023-04-15T02:39:24.248Z,1.50
2023-04-15T02:40:24.264Z,1.49
2023-04-15T02:41:24.265Z,1.49
2023-04-15T02:42:24.269Z,1.41
2023-04-15T02:43:24.309Z,1.32
2023-04-15T02:44:24.290Z,1.42
2023-04-15T02:45:24.323Z,1.43
2023-04-15T02:46:24.419Z,1.56
2023-04-15T02:47:24.327Z,1.46
2023-04-15T02:48:24.350Z,1.50
2023-04-15T02:49:24.353Z,1.40
2023-04-15T02:50:24.358Z,1.36
2023-04-15T02:51:24.367Z,1.36
2023-04-15T02:52:24.381Z,1.31
2023-04-15T02:53:24.374Z,1.34
2023-04-15T02:54:24.396Z,1.36
2023-04-15T02:55:24.409Z,1.40
2023-04-15T02:56:24.411Z,1.47
2023-04-15T02:57:24.405Z,1.46
2023-04-15T02:58:24.411Z,1.43
2023-04-15T02:59:24.434Z,1.41
2023-04-15T03:00:24.441Z,1.38
2023-04-15T03:01:24.497Z,1.39
2023-04-15T03:02:24.766Z,1.28
2023-04-15T03:03:24.518Z,1.29
2023-04-15T03:04:24.472Z,1.30
2023-04-15T03:05:24.493Z,1.29
2023-04-15T03:06:24.479Z,1.43
2023-04-15T03:07:24.503Z,1.37
2023-04-15T03:08:24.521Z,1.33
2023-04-15T03:09:24.508Z,1.43
2023-04-15T03:10:24.519Z,1.33
2023-04-15T03:11:24.524Z,1.36
2023-04-15T03:12:24.541Z,1.38
2023-04-15T03:13:24.526Z,1.36
2023-04-15T03:14:24.535Z,1.36
2023-04-15T03:15:24.539Z,1.32
2023-04-15T03:16:24.532Z,1.36
2023-04-15T03:17:24.537Z,1.24
2023-04-15T03:18:24.531Z,1.30
2023-04-15T03:19:24.551Z,1.37
2023-04-15T03:20:24.560Z,1.33
2023-04-15T03:21:24.558Z,1.28
2023-04-15T03:22:24.579Z,1.35
2023-04-15T03:23:24.566Z,1.36
2023-04-15T03:24:24.557Z,1.36
2023-04-15T03:25:24.573Z,1.36
2023-04-15T03:26:24.569Z,1.31
2023-04-15T03:27:24.580Z,1.26
2023-04-15T03:28:24.569Z,1.26
2023-04-15T03:29:24.565Z,1.29
2023-04-15T03:30:24.576Z,1.36
2023-04-15T03:31:24.598Z,1.31
2023-04-15T03:32:24.610Z,1.39
2023-04-15T03:33:24.585Z,1.36
2023-04-15T03:34:24.612Z,1.38
2023-04-15T03:35:24.588Z,1.32
2023-04-15T03:36:24.630Z,1.34
2023-04-15T03:37:24.626Z,1.41
2023-04-15T03:38:24.619Z,1.40
2023-04-15T03:39:24.615Z,1.30
2023-04-15T03:40:24.636Z,1.30
2023-04-15T03:41:24.643Z,1.27
2023-04-15T03:42:24.662Z,1.24
2023-04-15T03:43:24.662Z,1.28
2023-04-15T03:44:24.647Z,1.25
2023-04-15T03:45:24.681Z,1.30
2023-04-15T03:46:24.712Z,1.32
2023-04-15T03:47:24.685Z,1.30
2023-04-15T03:48:24.736Z,1.39
2023-04-15T03:49:24.682Z,1.34
2023-04-15T03:50:24.682Z,1.35
2023-04-15T03:51:24.716Z,1.34
2023-04-15T03:52:24.704Z,1.31
2023-04-15T03:53:24.701Z,1.26
2023-04-15T03:54:24.681Z,1.28
2023-04-15T03:55:24.692Z,1.20
2023-04-15T03:56:24.693Z,1.22
2023-04-15T03:57:24.712Z,1.25
2023-04-15T03:58:24.718Z,1.30
2023-04-15T03:59:24.721Z,1.28
2023-04-15T04:00:24.735Z,1.24
2023-04-15T04:01:24.729Z,1.32
2023-04-15T04:02:24.906Z,1.31
2023-04-15T04:03:25.002Z,1.36
2023-04-15T04:04:24.940Z,1.34
2023-04-15T04:05:24.745Z,1.29
2023-04-15T04:06:24.740Z,1.32
2023-04-15T04:07:24.752Z,1.28
2023-04-15T04:08:24.757Z,1.21
2023-04-15T04:09:24.773Z,1.25
2023-04-15T04:10:24.781Z,1.31
2023-04-15T04:11:24.779Z,1.32
2023-04-15T04:12:24.791Z,1.30
2023-04-15T04:13:24.811Z,1.30
2023-04-15T04:14:24.814Z,1.30
2023-04-15T04:15:24.855Z,1.29
2023-04-15T04:16:24.964Z,1.28
2023-04-15T04:17:24.873Z,1.29
2023-04-15T04:18:24.844Z,1.23
2023-04-15T04:19:24.851Z,1.29
2023-04-15T04:20:24.866Z,1.23
2023-04-15T04:21:24.889Z,1.24
2023-04-15T04:22:24.894Z,1.25
2023-04-15T04:23:24.892Z,1.28
2023-04-15T04:24:24.900Z,1.26
2023-04-15T04:25:24.922Z,1.22
2023-04-15T04:26:24.944Z,1.26
2023-04-15T04:27:24.953Z,1.18
2023-04-15T04:28:24.968Z,1.18
2023-04-15T04:29:24.976Z,1.18
2023-04-15T04:30:24.989Z,1.11
2023-04-15T04:31:25.038Z,1.11
2023-04-15T04:32:25.031Z,1.14
2023-04-15T04:33:25.041Z,1.13
2023-04-15T04:34:25.030Z,1.14
2023-04-15T04:35:25.045Z,1.08
2023-04-15T04:36:25.068Z,1.06
2023-04-15T04:37:25.070Z,1.07
2023-04-15T04:38:25.076Z,1.08
2023-04-15T04:39:25.098Z,1.04
2023-04-15T04:40:25.132Z,1.03
2023-04-15T04:41:25.140Z,1.10
2023-04-15T04:42:25.148Z,1.06
2023-04-15T04:43:25.150Z,1.08
2023-04-15T04:44:25.172Z,1.07
2023-04-15T04:45:25.182Z,1.13
2023-04-15T04:46:25.203Z,1.14
2023-04-15T04:47:25.246Z,1.05
2023-04-15T04:48:25.221Z,1.05
2023-04-15T04:49:25.235Z,1.03
2023-04-15T04:50:25.256Z,1.05
2023-04-15T04:51:25.269Z,1.09
2023-04-15T04:52:25.275Z,1.10
2023-04-15T04:53:25.281Z,1.10
2023-04-15T04:54:25.294Z,1.05
2023-04-15T04:55:25.299Z,1.07
2023-04-15T04:56:25.302Z,1.15
2023-04-15T04:57:25.297Z,1.09
2023-04-15T04:58:25.322Z,1.10
2023-04-15T04:59:25.316Z,1.11
2023-04-15T05:00:25.357Z,1.13
2023-04-15T05:01:25.354Z,1.09
2023-04-15T05:02:25.441Z,1.13
2023-04-15T05:03:25.457Z,1.11
2023-04-15T05:04:25.341Z,1.06
2023-04-15T05:05:25.357Z,1.03
2023-04-15T05:06:25.380Z,1.05
2023-04-15T05:07:25.367Z,1.05
2023-04-15T05:08:25.376Z,1.08
2023-04-15T05:09:25.402Z,1.10
2023-04-15T05:10:25.407Z,1.16
2023-04-15T05:11:25.425Z,1.07
2023-04-15T05:12:25.418Z,1.12
2023-04-15T05:13:25.468Z,1.10
2023-04-15T05:14:25.452Z,1.06
2023-04-15T05:15:25.458Z,1.10
2023-04-15T05:16:25.468Z,1.11
2023-04-15T05:17:25.527Z,1.15
2023-04-15T05:18:25.528Z,1.10
2023-04-15T05:19:25.514Z,1.16
2023-04-15T05:20:25.511Z,1.11
2023-04-15T05:21:25.540Z,1.15
2023-04-15T05:22:25.554Z,1.12
2023-04-15T05:23:25.586Z,1.17
2023-04-15T05:24:25.577Z,1.18
2023-04-15T05:25:25.578Z,1.10
2023-04-15T05:26:25.602Z,1.22
2023-04-15T05:27:25.617Z,1.23
2023-04-15T05:28:25.619Z,1.18
2023-04-15T05:29:25.620Z,1.21
2023-04-15T05:30:25.651Z,1.17
2023-04-15T05:31:25.658Z,1.18
2023-04-15T05:32:25.691Z,1.19
2023-04-15T05:33:25.681Z,1.22
2023-04-15T05:34:25.675Z,1.18
2023-04-15T05:35:25.701Z,1.16
2023-04-15T05:36:25.722Z,1.17
2023-04-15T05:37:25.716Z,1.17
2023-04-15T05:38:25.728Z,1.23
2023-04-15T05:39:25.743Z,1.34
2023-04-15T05:40:25.772Z,1.27
2023-04-15T05:41:25.786Z,1.32
2023-04-15T05:42:25.804Z,1.28
2023-04-15T05:43:25.801Z,1.22
2023-04-15T05:44:25.826Z,1.20
2023-04-15T05:45:25.819Z,1.21
2023-04-15T05:46:25.909Z,1.23
2023-04-15T05:47:25.854Z,1.27
2023-04-15T05:48:25.845Z,1.24
2023-04-15T05:49:25.860Z,1.21
2023-04-15T05:50:25.856Z,1.26
2023-04-15T05:51:25.868Z,1.26
2023-04-15T05:52:25.879Z,1.19
2023-04-15T05:53:25.878Z,1.19
2023-04-15T05:54:25.902Z,1.14
2023-04-15T05:55:25.902Z,1.17
2023-04-15T05:56:25.934Z,1.19
2023-04-15T05:57:25.928Z,1.07
2023-04-15T05:58:25.936Z,1.13
2023-04-15T05:59:25.968Z,1.11
2023-04-15T06:00:25.944Z,1.04
2023-04-15T06:01:25.971Z,1.06
2023-04-15T06:02:26.037Z,1.04
2023-04-15T06:03:26.079Z,1.04
2023-04-15T06:04:26.127Z,1.13
2023-04-15T06:05:25.991Z,1.11
2023-04-15T06:06:26.008Z,1.10
2023-04-15T06:07:25.995Z,1.00
2023-04-15T06:08:26.011Z,1.01
2023-04-15T06:09:26.016Z,1.05
2023-04-15T06:10:26.027Z,1.11
2023-04-15T06:11:26.028Z,1.08
2023-04-15T06:12:26.034Z,1.07
2023-04-15T06:13:26.041Z,1.18
2023-04-15T06:14:26.038Z,1.13
2023-04-15T06:15:26.082Z,1.21
2023-04-15T06:16:26.067Z,1.31
2023-04-15T06:17:26.100Z,1.15
2023-04-15T06:18:26.073Z,1.23
2023-04-15T06:19:26.080Z,1.29
2023-04-15T06:20:26.092Z,1.26
2023-04-15T06:21:26.081Z,1.28
2023-04-15T06:22:26.099Z,1.09
2023-04-15T06:23:27.032Z,1.24
2023-04-15T06:24:26.103Z,1.20
2023-04-15T06:25:26.111Z,1.04
2023-04-15T06:26:26.107Z,1.19
2023-04-15T06:27:26.108Z,1.36
2023-04-15T06:28:26.104Z,1.33
2023-04-15T06:29:26.122Z,1.54
2023-04-15T06:30:26.120Z,1.53
2023-04-15T06:31:26.121Z,1.55
2023-04-15T06:32:26.167Z,1.63
2023-04-15T06:33:26.112Z,1.56
2023-04-15T06:34:26.130Z,1.65
2023-04-15T06:35:26.140Z,1.60
2023-04-15T06:36:26.111Z,1.58
2023-04-15T06:37:26.113Z,1.72
2023-04-15T06:38:26.138Z,1.68
2023-04-15T06:39:26.134Z,1.65
2023-04-15T06:40:26.129Z,1.74
2023-04-15T06:41:26.130Z,1.72
2023-04-15T06:42:26.122Z,1.76
2023-04-15T06:43:26.120Z,1.83
2023-04-15T06:44:26.169Z,1.80
2023-04-15T06:45:26.195Z,1.76
2023-04-15T06:46:26.215Z,1.94
2023-04-15T06:47:26.137Z,1.83
2023-04-15T06:48:26.101Z,1.50
2023-04-15T06:49:26.101Z,1.66
2023-04-15T06:50:26.158Z,1.75
2023-04-15T06:51:26.842Z,1.69
2023-04-15T06:52:26.117Z,1.81
2023-04-15T06:53:26.099Z,1.75
2023-04-15T06:54:26.108Z,1.75
2023-04-15T06:55:26.111Z,1.69
2023-04-15T06:56:26.099Z,1.88
2023-04-15T06:57:26.088Z,1.45
2023-04-15T06:58:26.092Z,1.61
2023-04-15T06:59:26.094Z,1.76
2023-04-15T07:00:26.142Z,1.52
2023-04-15T07:01:26.115Z,1.53
2023-04-15T07:02:26.152Z,1.30
2023-04-15T07:03:26.069Z,1.44
2023-04-15T07:04:26.131Z,1.50
2023-04-15T07:05:26.070Z,1.57
2023-04-15T07:06:26.086Z,1.56
2023-04-15T07:07:26.070Z,1.55
2023-04-15T07:08:26.076Z,1.56
2023-04-15T07:09:26.057Z,1.54
2023-04-15T07:10:26.089Z,1.51
2023-04-15T07:11:26.078Z,1.48
2023-04-15T07:12:26.057Z,1.38
2023-04-15T07:13:26.059Z,1.33
2023-04-15T07:14:26.058Z,1.21
2023-04-15T07:15:26.078Z,1.29
2023-04-15T07:17:26.173Z,1.09
2023-04-15T07:18:26.155Z,1.06
2023-04-15T07:19:26.156Z,0.96
2023-04-15T07:20:26.306Z,0.88
2023-04-15T07:21:26.217Z,0.90
2023-04-15T07:22:26.296Z,0.82
2023-04-15T07:23:26.297Z,0.88
2023-04-15T07:24:26.325Z,0.87
2023-04-15T07:25:26.334Z,0.82
2023-04-15T07:26:26.379Z,0.84
2023-04-15T07:27:26.403Z,0.82
2023-04-15T07:28:26.449Z,0.82
2023-04-15T07:29:26.449Z,0.84
2023-04-15T07:30:26.511Z,0.85
2023-04-15T07:31:26.554Z,0.87
2023-04-15T07:32:26.569Z,0.81
2023-04-15T07:33:26.545Z,0.79
2023-04-15T07:34:26.624Z,0.81
2023-04-15T07:35:26.675Z,0.83
2023-04-15T07:36:26.689Z,0.81
2023-04-15T07:37:26.744Z,0.78
2023-04-15T07:38:26.790Z,0.80
2023-04-15T07:39:26.854Z,0.78
2023-04-15T07:40:26.894Z,0.78
2023-04-15T07:41:26.956Z,0.79
2023-04-15T07:42:27.025Z,0.82
2023-04-15T07:43:27.073Z,0.80
2023-04-15T07:44:27.115Z,0.80
2023-04-15T07:45:27.180Z,0.79
2023-04-15T07:46:27.348Z,0.81
2023-04-15T07:47:27.345Z,0.79
2023-04-15T07:48:27.381Z,0.80
2023-04-15T07:49:27.439Z,0.79
2023-04-15T07:50:27.507Z,0.80
2023-04-15T07:51:27.558Z,0.80
2023-04-15T07:52:27.649Z,0.78
2023-04-15T07:53:27.757Z,0.81
2023-04-15T07:54:27.731Z,0.82
2023-04-15T07:55:28.304Z,0.79
2023-04-15T07:56:27.867Z,0.79
2023-04-15T07:57:27.935Z,0.80
2023-04-15T07:58:27.975Z,0.80
2023-04-15T07:59:28.049Z,0.78
2023-04-15T08:00:28.106Z,0.78
2023-04-15T08:01:28.174Z,0.78
2023-04-15T08:02:28.279Z,0.77
2023-04-15T08:03:28.404Z,0.80
2023-04-15T08:04:28.457Z,0.77
2023-04-15T08:05:28.420Z,0.76
2023-04-15T08:06:28.466Z,0.75
2023-04-15T08:07:28.533Z,0.76
2023-04-15T08:08:28.584Z,0.76
2023-04-15T08:09:28.657Z,0.81
2023-04-15T08:10:28.717Z,0.80
2023-04-15T08:11:28.770Z,0.83
2023-04-15T08:12:28.816Z,0.84
2023-04-15T08:13:28.876Z,0.84
2023-04-15T08:14:28.943Z,0.82
2023-04-15T08:15:29.000Z,0.78
2023-04-15T08:16:29.084Z,0.73
2023-04-15T08:17:29.136Z,0.73
2023-04-15T08:18:29.174Z,0.72
2023-04-15T08:19:29.201Z,0.71
2023-04-15T08:20:29.258Z,0.71
2023-04-15T08:21:29.284Z,0.70
2023-04-15T08:22:29.338Z,0.68
2023-04-15T08:23:29.387Z,0.70
2023-04-15T08:24:29.439Z,0.74
2023-04-15T08:25:29.505Z,0.78
2023-04-15T08:26:29.541Z,0.80
2023-04-15T08:27:29.605Z,0.84
2023-04-15T08:28:29.648Z,0.81
2023-04-15T08:29:29.689Z,0.88
2023-04-15T08:30:29.733Z,0.85
2023-04-15T08:31:29.835Z,0.83
2023-04-15T08:32:29.822Z,0.83
2023-04-15T08:33:29.862Z,0.72
2023-04-15T08:34:29.881Z,0.69
2023-04-15T08:35:29.940Z,0.67
2023-04-15T08:36:29.965Z,0.66
2023-04-15T08:37:30.003Z,0.67
2023-04-15T08:38:30.048Z,0.68
2023-04-15T08:39:30.092Z,0.66
2023-04-15T08:40:30.124Z,0.67
2023-04-15T08:41:30.171Z,0.66
2023-04-15T08:42:30.206Z,0.63
2023-04-15T08:43:30.250Z,0.63
2023-04-15T08:44:30.266Z,0.62
2023-04-15T08:45:30.310Z,0.66
2023-04-15T08:46:30.377Z,0.68
2023-04-15T08:47:30.377Z,0.68
2023-04-15T08:48:30.379Z,0.70
2023-04-15T08:49:30.441Z,0.74
2023-04-15T08:50:30.426Z,0.79
2023-04-15T08:51:30.440Z,0.85
2023-04-15T08:52:30.466Z,0.83
2023-04-15T08:53:30.513Z,0.87
2023-04-15T08:54:30.492Z,0.88
2023-04-15T08:55:30.523Z,0.90
2023-04-15T08:56:30.541Z,0.88
2023-04-15T08:57:30.531Z,0.91
2023-04-15T08:58:30.554Z,1.01
2023-04-15T08:59:30.550Z,1.04
2023-04-15T09:00:30.561Z,0.99
2023-04-15T09:01:30.596Z,1.13
2023-04-15T09:02:30.636Z,1.15
2023-04-15T09:03:30.701Z,1.20
2023-04-15T09:04:30.597Z,1.11
2023-04-15T09:05:30.574Z,1.18
2023-04-15T09:06:30.578Z,1.22
2023-04-15T09:07:30.557Z,1.26
2023-04-15T09:08:30.552Z,1.20
2023-04-15T09:09:30.563Z,1.15
2023-04-15T09:10:30.565Z,1.19
2023-04-15T09:11:30.543Z,1.22
2023-04-15T09:12:30.545Z,1.25
2023-04-15T09:13:30.572Z,1.26
2023-04-15T09:14:30.572Z,1.25
2023-04-15T09:15:30.579Z,1.24
2023-04-15T09:16:30.589Z,1.32
2023-04-15T09:17:30.630Z,1.30
2023-04-15T09:18:30.590Z,1.35
2023-04-15T09:19:30.580Z,1.33
2023-04-15T09:20:30.587Z,1.36
2023-04-15T09:21:30.594Z,1.37
2023-04-15T09:22:30.578Z,1.32
2023-04-15T09:23:30.598Z,1.35
2023-04-15T09:24:30.589Z,1.28
2023-04-15T09:25:32.809Z,1.26
2023-04-15T09:26:30.570Z,1.23
2023-04-15T09:27:30.563Z,1.23
2023-04-15T09:28:30.574Z,1.28
2023-04-15T09:29:30.561Z,1.23
2023-04-15T09:30:30.591Z,1.18
2023-04-15T09:31:30.532Z,1.17
2023-04-15T09:32:30.588Z,1.13
2023-04-15T09:33:30.524Z,1.14
2023-04-15T09:34:30.521Z,1.13
2023-04-15T09:35:30.510Z,1.04
2023-04-15T09:36:30.500Z,1.01
2023-04-15T09:37:32.649Z,0.98
2023-04-15T09:38:30.493Z,1.03
2023-04-15T09:39:30.500Z,1.05
2023-04-15T09:40:30.476Z,0.99
2023-04-15T09:41:30.502Z,0.96
2023-04-15T09:42:30.467Z,0.98
2023-04-15T09:43:30.486Z,1.00
2023-04-15T09:44:30.552Z,0.99
2023-04-15T09:45:30.621Z,0.99
2023-04-15T09:46:30.779Z,1.00
2023-04-15T09:47:30.781Z,0.94
2023-04-15T09:48:30.803Z,0.94
2023-04-15T09:49:30.864Z,0.91
2023-04-15T09:50:30.916Z,0.98
2023-04-15T09:51:30.967Z,1.00
2023-04-15T09:52:31.008Z,0.96
2023-04-15T09:53:31.948Z,0.98
2023-04-15T09:54:31.097Z,0.97
2023-04-15T09:55:31.167Z,0.98
2023-04-15T09:56:31.206Z,0.88
2023-04-15T09:57:31.269Z,0.89
2023-04-15T09:58:31.292Z,0.89
2023-04-15T09:59:31.333Z,0.86
2023-04-15T10:00:31.375Z,0.86
2023-04-15T10:01:31.461Z,0.85
2023-04-15T10:02:31.546Z,0.86
2023-04-15T10:03:31.589Z,0.87
2023-04-15T10:04:31.535Z,0.83
2023-04-15T10:05:31.570Z,0.82
2023-04-15T10:06:31.615Z,0.84
2023-04-15T10:07:31.673Z,0.83
2023-04-15T10:08:31.690Z,0.82
2023-04-15T10:09:31.727Z,0.82
2023-04-15T10:10:31.754Z,0.85
2023-04-15T10:11:31.969Z,0.87
2023-04-15T10:12:31.838Z,0.89
2023-04-15T10:13:31.878Z,0.84
2023-04-15T10:14:31.907Z,0.89
2023-04-15T10:15:31.982Z,0.88
2023-04-15T10:16:31.996Z,0.84
2023-04-15T10:17:32.057Z,0.82
2023-04-15T10:18:32.075Z,0.86
2023-04-15T10:19:32.116Z,0.90
2023-04-15T10:20:32.144Z,0.89
2023-04-15T10:21:32.196Z,0.87
2023-04-15T10:22:32.223Z,0.85
2023-04-15T10:23:32.275Z,0.86
2023-04-15T10:24:32.315Z,0.86
2023-04-15T10:25:32.359Z,0.86
2023-04-15T10:26:32.392Z,0.84
2023-04-15T10:27:32.447Z,0.89
2023-04-15T10:28:32.475Z,0.87
2023-04-15T10:29:32.594Z,0.84
2023-04-15T10:30:32.550Z,0.87
2023-04-15T10:31:32.710Z,0.87
2023-04-15T10:32:32.651Z,0.89
2023-04-15T10:33:32.680Z,0.97
2023-04-15T10:34:32.728Z,0.93
2023-04-15T10:35:32.747Z,0.91
2023-04-15T10:36:32.781Z,0.92
2023-04-15T10:37:32.814Z,0.90
2023-04-15T10:38:32.872Z,0.93
2023-04-15T10:39:32.918Z,0.97
2023-04-15T10:40:32.943Z,1.03
2023-04-15T10:41:33.016Z,0.96
2023-04-15T10:42:33.074Z,0.92
2023-04-15T10:43:33.094Z,0.92
2023-04-15T10:44:33.130Z,0.99
2023-04-15T10:45:33.188Z,1.00
2023-04-15T10:46:33.273Z,0.92
2023-04-15T10:47:33.289Z,0.94
2023-04-15T10:48:33.330Z,0.97
2023-04-15T10:49:33.370Z,0.95
2023-04-15T10:50:33.429Z,0.99
2023-04-15T10:51:33.457Z,1.05
2023-04-15T10:52:33.513Z,1.05
2023-04-15T10:53:33.552Z,1.07
2023-04-15T10:54:33.597Z,1.04
2023-04-15T10:55:33.654Z,1.01
2023-04-15T10:56:33.701Z,1.00
2023-04-15T10:57:33.745Z,1.12
2023-04-15T10:58:33.792Z,1.14
2023-04-15T10:59:33.831Z,1.11
2023-04-15T11:00:33.888Z,1.11
2023-04-15T11:01:33.963Z,1.12
2023-04-15T11:02:34.226Z,1.17
2023-04-15T11:03:34.256Z,1.22
2023-04-15T11:04:34.148Z,1.19
2023-04-15T11:05:34.121Z,1.15
2023-04-15T11:06:34.192Z,1.13
2023-04-15T11:07:34.242Z,1.15
2023-04-15T11:08:34.279Z,1.17
2023-04-15T11:09:34.349Z,1.16
2023-04-15T11:10:34.404Z,1.11
2023-04-15T11:11:34.458Z,0.98
2023-04-15T11:12:34.501Z,1.07
2023-04-15T11:13:34.562Z,1.03
2023-04-15T11:14:34.621Z,1.04
2023-04-15T11:15:34.664Z,1.10
2023-04-15T11:16:34.751Z,1.12
2023-04-15T11:17:34.791Z,1.06
2023-04-15T11:18:34.846Z,0.99
2023-04-15T11:19:34.869Z,1.08
2023-04-15T11:20:34.934Z,1.19
2023-04-15T11:21:34.980Z,1.12
2023-04-15T11:22:35.044Z,1.09
2023-04-15T11:23:35.097Z,1.14
2023-04-15T11:24:35.151Z,1.02
2023-04-15T11:25:35.198Z,0.99
2023-04-15T11:26:35.244Z,0.93
2023-04-15T11:27:35.311Z,1.02
2023-04-15T11:28:36.737Z,0.95
2023-04-15T11:29:35.406Z,1.04
2023-04-15T11:30:35.458Z,1.07
2023-04-15T11:31:35.544Z,1.10
2023-04-15T11:32:35.574Z,1.14
2023-04-15T11:33:35.602Z,1.07
2023-04-15T11:34:36.205Z,1.17
2023-04-15T11:35:35.718Z,1.14
2023-04-15T11:36:35.785Z,1.14
2023-04-15T11:37:35.825Z,1.11
2023-04-15T11:38:35.878Z,1.11
2023-04-15T11:39:35.915Z,1.12
2023-04-15T11:40:35.977Z,1.26
2023-04-15T11:41:36.040Z,1.19
2023-04-15T11:42:48.590Z,1.19
2023-04-15T11:43:37.095Z,1.20
2023-04-15T11:44:36.069Z,1.21
2023-04-15T11:45:36.183Z,1.24
2023-04-15T11:46:36.075Z,1.21
2023-04-15T11:47:36.110Z,1.33
2023-04-15T11:48:36.071Z,1.36
2023-04-15T11:49:36.066Z,1.22
2023-04-15T11:50:36.041Z,1.35
2023-04-15T11:51:36.034Z,1.32
2023-04-15T11:52:36.039Z,1.16
2023-04-15T11:53:36.096Z,1.13
2023-04-15T11:54:36.155Z,1.27
2023-04-15T11:55:36.220Z,1.30
2023-04-15T11:56:36.294Z,1.24
2023-04-15T11:57:36.331Z,1.35
2023-04-15T11:58:36.394Z,1.30
2023-04-15T11:59:44.980Z,1.27
2023-04-15T12:00:37.453Z,1.27
2023-04-15T12:01:36.477Z,1.16
2023-04-15T12:02:36.476Z,1.14
2023-04-15T12:03:36.521Z,1.16
2023-04-15T12:04:36.532Z,1.25
2023-04-15T12:05:36.419Z,1.15
2023-04-15T12:06:36.400Z,1.15
2023-04-15T12:07:36.385Z,1.01
2023-04-15T12:08:36.377Z,1.00
2023-04-15T12:09:36.393Z,1.04
2023-04-15T12:10:36.489Z,0.96
2023-04-15T12:11:36.534Z,0.92
2023-04-15T12:12:36.593Z,0.92
2023-04-15T12:13:36.655Z,1.01
2023-04-15T12:14:36.731Z,0.79
2023-04-15T12:15:36.839Z,0.81
2023-04-15T12:16:44.546Z,0.79
2023-04-15T12:17:51.553Z,0.76
2023-04-15T12:18:37.843Z,0.79
2023-04-15T12:19:36.820Z,0.80
2023-04-15T12:20:36.814Z,0.79
2023-04-15T12:21:36.808Z,0.67
2023-04-15T12:22:36.802Z,0.77
2023-04-15T12:23:36.811Z,0.83
2023-04-15T12:24:36.789Z,0.81
2023-04-15T12:25:36.801Z,0.75
2023-04-15T12:26:36.799Z,0.75
2023-04-15T12:27:36.772Z,0.72
2023-04-15T12:28:36.758Z,0.74
2023-04-15T12:29:36.774Z,0.83
2023-04-15T12:30:36.754Z,0.87
2023-04-15T12:31:36.813Z,0.85
2023-04-15T12:32:36.763Z,0.85
2023-04-15T12:33:36.760Z,0.91
2023-04-15T12:34:36.749Z,0.82
2023-04-15T12:35:36.736Z,0.81
2023-04-15T12:36:36.706Z,0.82
2023-04-15T12:37:36.705Z,0.85
2023-04-15T12:38:36.706Z,0.80
2023-04-15T12:39:36.712Z,0.79
2023-04-15T12:40:36.705Z,0.72
2023-04-15T12:41:36.739Z,0.71
2023-04-15T12:42:36.773Z,0.79
2023-04-15T12:43:36.850Z,0.86
2023-04-15T12:44:36.913Z,0.96
2023-04-15T12:45:36.958Z,0.75
2023-04-15T12:46:37.038Z,0.73
2023-04-15T12:47:37.123Z,0.76
2023-04-15T12:48:37.129Z,0.75
2023-04-15T12:49:37.197Z,0.83
2023-04-15T12:50:37.258Z,0.78
2023-04-15T12:51:37.311Z,0.77
2023-04-15T12:52:37.385Z,0.88
2023-04-15T12:53:37.410Z,0.86
2023-04-15T12:54:37.490Z,0.90
2023-04-15T12:55:37.547Z,0.80
2023-04-15T12:56:37.582Z,0.78
2023-04-15T12:57:37.623Z,0.79
2023-04-15T12:58:37.653Z,0.80
2023-04-15T12:59:37.704Z,0.90
2023-04-15T13:00:37.696Z,0.93
2023-04-15T13:01:37.746Z,0.90
2023-04-15T13:02:37.967Z,0.89
2023-04-15T13:03:37.855Z,0.92
2023-04-15T13:04:37.791Z,0.94
2023-04-15T13:05:37.773Z,0.90
2023-04-15T13:06:37.804Z,0.91
2023-04-15T13:07:37.791Z,0.91
2023-04-15T13:08:40.441Z,0.85
2023-04-15T13:09:38.811Z,0.85
2023-04-15T13:10:37.821Z,0.86
2023-04-15T13:11:37.790Z,0.85
2023-04-15T13:12:37.766Z,0.87
2023-04-15T13:13:37.774Z,0.89
2023-04-15T13:14:37.770Z,0.87
2023-04-15T13:15:37.787Z,0.90
2023-04-15T13:16:37.820Z,0.89
2023-04-15T13:17:37.793Z,0.85
2023-04-15T13:18:37.739Z,0.81
2023-04-15T13:19:37.736Z,0.84